sensor_id;sensor_type;location;lat;lon;timestamp;temperature;humidity
39095;DHT22;24840;47.508;19.376;2022-07-29T00:01:07;21.90;78.80
39095;DHT22;24840;47.508;19.376;2022-07-29T00:03:33;21.80;79.90
39095;DHT22;24840;47.508;19.376;2022-07-29T00:05:59;21.90;79.50
39095;DHT22;24840;47.508;19.376;2022-07-29T00:08:25;21.90;79.30
39095;DHT22;24840;47.508;19.376;2022-07-29T00:10:51;21.90;79.40
39095;DHT22;24840;47.508;19.376;2022-07-29T00:13:17;21.90;79.10
39095;DHT22;24840;47.508;19.376;2022-07-29T00:15:43;21.90;79.30
39095;DHT22;24840;47.508;19.376;2022-07-29T00:18:08;22.00;79.00
39095;DHT22;24840;47.508;19.376;2022-07-29T00:20:34;22.00;78.80
39095;DHT22;24840;47.508;19.376;2022-07-29T00:23:00;22.00;78.80
39095;DHT22;24840;47.508;19.376;2022-07-29T00:25:26;22.00;78.90
39095;DHT22;24840;47.508;19.376;2022-07-29T00:27:52;21.90;79.20
39095;DHT22;24840;47.508;19.376;2022-07-29T00:30:22;21.90;79.00
39095;DHT22;24840;47.508;19.376;2022-07-29T00:32:50;21.90;78.70
39095;DHT22;24840;47.508;19.376;2022-07-29T00:35:17;22.00;78.60
39095;DHT22;24840;47.508;19.376;2022-07-29T00:38:01;21.90;79.30
39095;DHT22;24840;47.508;19.376;2022-07-29T00:40:30;21.80;79.80
39095;DHT22;24840;47.508;19.376;2022-07-29T00:43:01;21.70;79.50
39095;DHT22;24840;47.508;19.376;2022-07-29T00:45:28;21.70;80.10
39095;DHT22;24840;47.508;19.376;2022-07-29T00:47:56;21.80;79.70
39095;DHT22;24840;47.508;19.376;2022-07-29T00:50:27;21.70;80.10
39095;DHT22;24840;47.508;19.376;2022-07-29T00:52:54;21.70;80.40
39095;DHT22;24840;47.508;19.376;2022-07-29T00:55:20;21.70;80.00
39095;DHT22;24840;47.508;19.376;2022-07-29T00:57:47;21.70;80.60
39095;DHT22;24840;47.508;19.376;2022-07-29T01:00:19;21.70;80.30
39095;DHT22;24840;47.508;19.376;2022-07-29T01:02:47;21.60;80.70
39095;DHT22;24840;47.508;19.376;2022-07-29T01:05:16;21.50;81.40
39095;DHT22;24840;47.508;19.376;2022-07-29T01:07:42;21.40;81.90
39095;DHT22;24840;47.508;19.376;2022-07-29T01:10:10;21.40;81.60
39095;DHT22;24840;47.508;19.376;2022-07-29T01:12:39;21.50;81.10
39095;DHT22;24840;47.508;19.376;2022-07-29T01:15:07;21.50;81.50
39095;DHT22;24840;47.508;19.376;2022-07-29T01:18:37;21.60;81.00
39095;DHT22;24840;47.508;19.376;2022-07-29T01:20:49;21.60;81.80
39095;DHT22;24840;47.508;19.376;2022-07-29T01:26:35;21.20;83.30
39095;DHT22;24840;47.508;19.376;2022-07-29T01:29:22;21.10;84.40
39095;DHT22;24840;47.508;19.376;2022-07-29T01:32:06;21.00;84.80
39095;DHT22;24840;47.508;19.376;2022-07-29T01:34:40;20.90;85.60
39095;DHT22;24840;47.508;19.376;2022-07-29T01:37:21;20.60;86.90
39095;DHT22;24840;47.508;19.376;2022-07-29T01:39:50;20.50;87.60
39095;DHT22;24840;47.508;19.376;2022-07-29T01:42:41;20.40;88.40
39095;DHT22;24840;47.508;19.376;2022-07-29T01:45:15;20.40;88.40
39095;DHT22;24840;47.508;19.376;2022-07-29T01:50:35;20.30;87.80
39095;DHT22;24840;47.508;19.376;2022-07-29T01:53:05;20.20;88.60
39095;DHT22;24840;47.508;19.376;2022-07-29T01:55:36;20.20;89.10
39095;DHT22;24840;47.508;19.376;2022-07-29T01:58:05;20.10;89.10
39095;DHT22;24840;47.508;19.376;2022-07-29T02:00:33;20.10;88.10
39095;DHT22;24840;47.508;19.376;2022-07-29T02:03:11;20.10;89.00
39095;DHT22;24840;47.508;19.376;2022-07-29T02:05:40;20.00;89.50
39095;DHT22;24840;47.508;19.376;2022-07-29T02:08:08;20.00;89.50
39095;DHT22;24840;47.508;19.376;2022-07-29T02:10:36;19.90;89.70
39095;DHT22;24840;47.508;19.376;2022-07-29T02:13:04;20.00;89.70
39095;DHT22;24840;47.508;19.376;2022-07-29T02:15:32;19.90;90.10
39095;DHT22;24840;47.508;19.376;2022-07-29T02:18:11;19.90;89.90
39095;DHT22;24840;47.508;19.376;2022-07-29T02:20:39;19.80;90.20
39095;DHT22;24840;47.508;19.376;2022-07-29T02:23:07;19.70;90.30
39095;DHT22;24840;47.508;19.376;2022-07-29T02:25:36;19.70;90.40
39095;DHT22;24840;47.508;19.376;2022-07-29T02:28:05;19.50;90.80
39095;DHT22;24840;47.508;19.376;2022-07-29T02:30:32;19.50;90.80
39095;DHT22;24840;47.508;19.376;2022-07-29T02:32:58;19.60;90.80
39095;DHT22;24840;47.508;19.376;2022-07-29T02:35:25;19.60;90.40
39095;DHT22;24840;47.508;19.376;2022-07-29T02:37:52;19.70;90.20
39095;DHT22;24840;47.508;19.376;2022-07-29T02:40:38;19.50;90.60
39095;DHT22;24840;47.508;19.376;2022-07-29T02:43:09;19.50;90.80
39095;DHT22;24840;47.508;19.376;2022-07-29T02:45:36;19.30;91.20
39095;DHT22;24840;47.508;19.376;2022-07-29T02:48:06;19.40;90.90
39095;DHT22;24840;47.508;19.376;2022-07-29T02:50:43;19.30;91.00
39095;DHT22;24840;47.508;19.376;2022-07-29T02:53:15;19.30;91.60
39095;DHT22;24840;47.508;19.376;2022-07-29T02:55:47;19.00;92.30
39095;DHT22;24840;47.508;19.376;2022-07-29T03:00:56;19.10;91.90
39095;DHT22;24840;47.508;19.376;2022-07-29T03:03:26;19.00;92.40
39095;DHT22;24840;47.508;19.376;2022-07-29T03:05:55;19.00;92.60
39095;DHT22;24840;47.508;19.376;2022-07-29T03:08:23;18.80;92.80
39095;DHT22;24840;47.508;19.376;2022-07-29T03:10:50;18.80;93.20
39095;DHT22;24840;47.508;19.376;2022-07-29T03:13:19;18.80;93.10
39095;DHT22;24840;47.508;19.376;2022-07-29T03:15:49;18.70;93.30
39095;DHT22;24840;47.508;19.376;2022-07-29T03:18:17;18.70;93.50
39095;DHT22;24840;47.508;19.376;2022-07-29T03:20:44;18.70;93.80
39095;DHT22;24840;47.508;19.376;2022-07-29T03:23:10;18.70;93.60
39095;DHT22;24840;47.508;19.376;2022-07-29T03:25:36;18.70;93.80
39095;DHT22;24840;47.508;19.376;2022-07-29T03:28:03;18.70;93.70
39095;DHT22;24840;47.508;19.376;2022-07-29T03:30:29;18.70;93.70
39095;DHT22;24840;47.508;19.376;2022-07-29T03:32:56;18.70;93.70
39095;DHT22;24840;47.508;19.376;2022-07-29T03:35:22;18.60;94.00
39095;DHT22;24840;47.508;19.376;2022-07-29T03:37:48;18.50;94.40
39095;DHT22;24840;47.508;19.376;2022-07-29T03:40:27;18.60;94.30
39095;DHT22;24840;47.508;19.376;2022-07-29T03:42:59;18.60;94.40
39095;DHT22;24840;47.508;19.376;2022-07-29T03:45:26;18.70;94.40
39095;DHT22;24840;47.508;19.376;2022-07-29T03:47:57;18.60;94.40
39095;DHT22;24840;47.508;19.376;2022-07-29T03:50:25;18.70;94.50
39095;DHT22;24840;47.508;19.376;2022-07-29T03:52:51;18.70;94.70
39095;DHT22;24840;47.508;19.376;2022-07-29T03:55:17;18.70;94.60
39095;DHT22;24840;47.508;19.376;2022-07-29T03:57:45;18.80;94.20
39095;DHT22;24840;47.508;19.376;2022-07-29T04:00:12;18.80;94.30
39095;DHT22;24840;47.508;19.376;2022-07-29T04:02:38;18.80;94.30
39095;DHT22;24840;47.508;19.376;2022-07-29T04:05:07;18.90;94.30
39095;DHT22;24840;47.508;19.376;2022-07-29T04:07:37;18.80;94.60
39095;DHT22;24840;47.508;19.376;2022-07-29T04:10:03;18.70;94.60
39095;DHT22;24840;47.508;19.376;2022-07-29T04:12:29;18.80;94.60
39095;DHT22;24840;47.508;19.376;2022-07-29T04:14:55;18.80;94.80
39095;DHT22;24840;47.508;19.376;2022-07-29T04:17:21;18.80;95.10
39095;DHT22;24840;47.508;19.376;2022-07-29T04:19:47;18.80;94.90
39095;DHT22;24840;47.508;19.376;2022-07-29T04:22:13;18.90;94.80
39095;DHT22;24840;47.508;19.376;2022-07-29T04:24:39;19.00;94.80
39095;DHT22;24840;47.508;19.376;2022-07-29T04:27:05;18.90;95.10
39095;DHT22;24840;47.508;19.376;2022-07-29T04:29:31;18.90;95.50
39095;DHT22;24840;47.508;19.376;2022-07-29T04:31:57;19.00;94.90
39095;DHT22;24840;47.508;19.376;2022-07-29T04:34:23;19.10;95.40
39095;DHT22;24840;47.508;19.376;2022-07-29T04:36:50;19.00;95.70
39095;DHT22;24840;47.508;19.376;2022-07-29T04:39:16;19.10;95.40
39095;DHT22;24840;47.508;19.376;2022-07-29T04:41:43;19.20;95.20
39095;DHT22;24840;47.508;19.376;2022-07-29T04:44:11;19.20;95.20
39095;DHT22;24840;47.508;19.376;2022-07-29T04:46:37;19.20;95.00
39095;DHT22;24840;47.508;19.376;2022-07-29T04:49:04;19.30;94.80
39095;DHT22;24840;47.508;19.376;2022-07-29T04:51:30;19.50;93.80
39095;DHT22;24840;47.508;19.376;2022-07-29T04:53:56;19.60;94.00
39095;DHT22;24840;47.508;19.376;2022-07-29T04:56:22;19.50;94.70
39095;DHT22;24840;47.508;19.376;2022-07-29T04:58:49;19.50;95.30
39095;DHT22;24840;47.508;19.376;2022-07-29T05:01:14;19.50;95.40
39095;DHT22;24840;47.508;19.376;2022-07-29T05:03:41;19.60;95.20
39095;DHT22;24840;47.508;19.376;2022-07-29T05:06:07;19.70;95.00
39095;DHT22;24840;47.508;19.376;2022-07-29T05:08:32;19.70;94.90
39095;DHT22;24840;47.508;19.376;2022-07-29T05:10:58;19.70;94.90
39095;DHT22;24840;47.508;19.376;2022-07-29T05:13:24;19.90;94.70
39095;DHT22;24840;47.508;19.376;2022-07-29T05:15:50;20.00;94.60
39095;DHT22;24840;47.508;19.376;2022-07-29T05:18:16;20.00;94.90
39095;DHT22;24840;47.508;19.376;2022-07-29T05:20:42;20.20;94.50
39095;DHT22;24840;47.508;19.376;2022-07-29T05:23:08;20.40;93.90
39095;DHT22;24840;47.508;19.376;2022-07-29T05:25:34;20.70;93.60
39095;DHT22;24840;47.508;19.376;2022-07-29T05:28:01;20.80;92.80
39095;DHT22;24840;47.508;19.376;2022-07-29T05:30:27;21.10;92.60
39095;DHT22;24840;47.508;19.376;2022-07-29T05:32:53;21.40;92.10
39095;DHT22;24840;47.508;19.376;2022-07-29T05:35:19;21.50;91.90
39095;DHT22;24840;47.508;19.376;2022-07-29T05:37:45;21.80;91.00
39095;DHT22;24840;47.508;19.376;2022-07-29T05:40:11;22.00;90.80
39095;DHT22;24840;47.508;19.376;2022-07-29T05:42:37;22.20;90.70
39095;DHT22;24840;47.508;19.376;2022-07-29T05:45:03;22.40;89.90
39095;DHT22;24840;47.508;19.376;2022-07-29T05:47:30;22.70;88.50
39095;DHT22;24840;47.508;19.376;2022-07-29T05:49:56;22.90;88.30
39095;DHT22;24840;47.508;19.376;2022-07-29T05:52:22;23.00;87.80
39095;DHT22;24840;47.508;19.376;2022-07-29T05:54:49;23.10;87.60
39095;DHT22;24840;47.508;19.376;2022-07-29T05:57:21;23.20;87.30
39095;DHT22;24840;47.508;19.376;2022-07-29T05:59:48;23.40;85.30
39095;DHT22;24840;47.508;19.376;2022-07-29T06:02:14;23.60;80.70
39095;DHT22;24840;47.508;19.376;2022-07-29T06:04:40;23.80;82.00
39095;DHT22;24840;47.508;19.376;2022-07-29T06:07:06;24.00;79.00
39095;DHT22;24840;47.508;19.376;2022-07-29T06:09:33;24.20;78.10
39095;DHT22;24840;47.508;19.376;2022-07-29T06:11:59;24.30;78.30
39095;DHT22;24840;47.508;19.376;2022-07-29T06:14:26;24.30;77.30
39095;DHT22;24840;47.508;19.376;2022-07-29T06:16:52;24.30;76.20
39095;DHT22;24840;47.508;19.376;2022-07-29T06:19:18;24.50;77.70
39095;DHT22;24840;47.508;19.376;2022-07-29T06:21:45;24.60;75.80
39095;DHT22;24840;47.508;19.376;2022-07-29T06:24:12;24.70;75.30
39095;DHT22;24840;47.508;19.376;2022-07-29T06:26:40;25.10;75.50
39095;DHT22;24840;47.508;19.376;2022-07-29T06:29:07;25.20;74.00
39095;DHT22;24840;47.508;19.376;2022-07-29T06:31:33;25.40;73.20
39095;DHT22;24840;47.508;19.376;2022-07-29T06:33:59;25.50;73.30
39095;DHT22;24840;47.508;19.376;2022-07-29T06:36:25;25.90;73.20
39095;DHT22;24840;47.508;19.376;2022-07-29T06:38:51;25.70;72.20
39095;DHT22;24840;47.508;19.376;2022-07-29T06:41:17;25.90;73.80
39095;DHT22;24840;47.508;19.376;2022-07-29T06:43:45;26.00;71.30
39095;DHT22;24840;47.508;19.376;2022-07-29T06:46:14;25.80;71.40
39095;DHT22;24840;47.508;19.376;2022-07-29T06:48:41;25.90;71.60
39095;DHT22;24840;47.508;19.376;2022-07-29T06:51:09;26.10;70.80
39095;DHT22;24840;47.508;19.376;2022-07-29T06:53:35;26.10;70.80
39095;DHT22;24840;47.508;19.376;2022-07-29T06:56:02;26.30;70.10
39095;DHT22;24840;47.508;19.376;2022-07-29T06:58:29;26.50;69.90
39095;DHT22;24840;47.508;19.376;2022-07-29T07:01:01;26.80;69.30
39095;DHT22;24840;47.508;19.376;2022-07-29T07:03:28;26.70;69.10
39095;DHT22;24840;47.508;19.376;2022-07-29T07:05:54;26.90;68.60
39095;DHT22;24840;47.508;19.376;2022-07-29T07:08:21;27.20;68.20
39095;DHT22;24840;47.508;19.376;2022-07-29T07:10:48;27.70;67.80
39095;DHT22;24840;47.508;19.376;2022-07-29T07:13:17;28.40;66.70
39095;DHT22;24840;47.508;19.376;2022-07-29T07:15:44;28.20;66.80
39095;DHT22;24840;47.508;19.376;2022-07-29T07:18:10;28.30;65.50
39095;DHT22;24840;47.508;19.376;2022-07-29T07:20:37;28.60;64.80
39095;DHT22;24840;47.508;19.376;2022-07-29T07:23:03;29.00;64.40
39095;DHT22;24840;47.508;19.376;2022-07-29T07:25:31;29.10;64.80
39095;DHT22;24840;47.508;19.376;2022-07-29T07:27:57;28.90;64.80
39095;DHT22;24840;47.508;19.376;2022-07-29T07:30:23;29.10;63.90
39095;DHT22;24840;47.508;19.376;2022-07-29T07:32:49;29.20;64.50
39095;DHT22;24840;47.508;19.376;2022-07-29T07:35:15;29.60;62.30
39095;DHT22;24840;47.508;19.376;2022-07-29T07:37:41;29.20;63.20
39095;DHT22;24840;47.508;19.376;2022-07-29T07:40:09;29.40;62.80
39095;DHT22;24840;47.508;19.376;2022-07-29T07:42:35;30.00;62.30
39095;DHT22;24840;47.508;19.376;2022-07-29T07:45:01;30.10;61.40
39095;DHT22;24840;47.508;19.376;2022-07-29T07:47:28;29.80;61.00
39095;DHT22;24840;47.508;19.376;2022-07-29T07:49:54;30.30;61.60
39095;DHT22;24840;47.508;19.376;2022-07-29T07:52:21;30.90;60.00
39095;DHT22;24840;47.508;19.376;2022-07-29T07:54:48;31.00;59.70
39095;DHT22;24840;47.508;19.376;2022-07-29T07:57:14;31.00;59.50
39095;DHT22;24840;47.508;19.376;2022-07-29T07:59:41;31.30;58.60
39095;DHT22;24840;47.508;19.376;2022-07-29T08:02:09;31.30;58.20
39095;DHT22;24840;47.508;19.376;2022-07-29T08:04:41;31.90;57.70
39095;DHT22;24840;47.508;19.376;2022-07-29T08:07:12;31.80;56.50
39095;DHT22;24840;47.508;19.376;2022-07-29T08:09:39;31.50;57.60
39095;DHT22;24840;47.508;19.376;2022-07-29T08:12:06;32.20;57.40
39095;DHT22;24840;47.508;19.376;2022-07-29T08:17:43;32.70;55.50
39095;DHT22;24840;47.508;19.376;2022-07-29T08:20:10;32.70;55.60
39095;DHT22;24840;47.508;19.376;2022-07-29T08:22:36;33.00;55.90
39095;DHT22;24840;47.508;19.376;2022-07-29T08:25:02;33.60;54.50
39095;DHT22;24840;47.508;19.376;2022-07-29T08:27:28;33.20;54.90
39095;DHT22;24840;47.508;19.376;2022-07-29T08:29:56;33.40;54.40
39095;DHT22;24840;47.508;19.376;2022-07-29T08:32:23;33.70;52.30
39095;DHT22;24840;47.508;19.376;2022-07-29T08:34:49;34.10;52.10
39095;DHT22;24840;47.508;19.376;2022-07-29T08:37:15;34.20;51.50
39095;DHT22;24840;47.508;19.376;2022-07-29T08:39:41;34.50;51.50
39095;DHT22;24840;47.508;19.376;2022-07-29T08:42:07;34.50;51.60
39095;DHT22;24840;47.508;19.376;2022-07-29T08:44:34;35.10;50.20
39095;DHT22;24840;47.508;19.376;2022-07-29T08:47:01;34.70;49.90
39095;DHT22;24840;47.508;19.376;2022-07-29T08:49:28;34.70;50.60
39095;DHT22;24840;47.508;19.376;2022-07-29T08:51:55;35.10;48.70
39095;DHT22;24840;47.508;19.376;2022-07-29T08:54:25;35.20;49.80
39095;DHT22;24840;47.508;19.376;2022-07-29T08:56:56;34.70;50.40
39095;DHT22;24840;47.508;19.376;2022-07-29T08:59:27;35.30;49.40
39095;DHT22;24840;47.508;19.376;2022-07-29T09:01:57;35.90;47.90
39095;DHT22;24840;47.508;19.376;2022-07-29T09:04:29;35.60;47.90
39095;DHT22;24840;47.508;19.376;2022-07-29T09:07:01;35.80;47.20
39095;DHT22;24840;47.508;19.376;2022-07-29T09:09:34;35.70;48.60
39095;DHT22;24840;47.508;19.376;2022-07-29T09:12:14;36.10;46.90
39095;DHT22;24840;47.508;19.376;2022-07-29T09:14:42;35.30;46.10
39095;DHT22;24840;47.508;19.376;2022-07-29T09:17:08;34.60;48.50
39095;DHT22;24840;47.508;19.376;2022-07-29T09:19:39;35.40;47.10
39095;DHT22;24840;47.508;19.376;2022-07-29T09:22:06;35.10;48.80
39095;DHT22;24840;47.508;19.376;2022-07-29T09:27:01;36.10;45.70
39095;DHT22;24840;47.508;19.376;2022-07-29T09:29:27;36.00;46.90
39095;DHT22;24840;47.508;19.376;2022-07-29T09:31:54;37.00;45.90
39095;DHT22;24840;47.508;19.376;2022-07-29T09:34:28;36.30;44.00
39095;DHT22;24840;47.508;19.376;2022-07-29T09:36:55;35.90;44.50
39095;DHT22;24840;47.508;19.376;2022-07-29T09:39:33;36.60;44.60
39095;DHT22;24840;47.508;19.376;2022-07-29T09:42:05;37.10;43.80
39095;DHT22;24840;47.508;19.376;2022-07-29T09:45:01;36.50;43.80
39095;DHT22;24840;47.508;19.376;2022-07-29T09:47:42;35.80;44.50
39095;DHT22;24840;47.508;19.376;2022-07-29T09:50:11;36.70;44.10
39095;DHT22;24840;47.508;19.376;2022-07-29T09:52:53;37.10;43.10
39095;DHT22;24840;47.508;19.376;2022-07-29T09:55:20;37.00;42.30
39095;DHT22;24840;47.508;19.376;2022-07-29T09:57:47;37.30;42.00
39095;DHT22;24840;47.508;19.376;2022-07-29T10:00:16;37.50;41.70
39095;DHT22;24840;47.508;19.376;2022-07-29T10:02:44;38.10;42.00
39095;DHT22;24840;47.508;19.376;2022-07-29T10:05:25;38.30;40.50
39095;DHT22;24840;47.508;19.376;2022-07-29T10:07:52;37.90;40.10
39095;DHT22;24840;47.508;19.376;2022-07-29T10:10:32;37.70;41.80
39095;DHT22;24840;47.508;19.376;2022-07-29T10:13:02;38.40;40.20
39095;DHT22;24840;47.508;19.376;2022-07-29T10:15:32;37.90;40.20
39095;DHT22;24840;47.508;19.376;2022-07-29T10:17:59;36.20;40.50
39095;DHT22;24840;47.508;19.376;2022-07-29T10:20:27;36.40;41.10
39095;DHT22;24840;47.508;19.376;2022-07-29T10:22:54;37.20;41.10
39095;DHT22;24840;47.508;19.376;2022-07-29T10:25:21;37.20;41.50
39095;DHT22;24840;47.508;19.376;2022-07-29T10:27:48;37.60;41.60
39095;DHT22;24840;47.508;19.376;2022-07-29T10:30:16;39.00;40.10
39095;DHT22;24840;47.508;19.376;2022-07-29T10:44:12;36.60;41.60
39095;DHT22;24840;47.508;19.376;2022-07-29T10:46:43;38.40;40.50
39095;DHT22;24840;47.508;19.376;2022-07-29T10:49:20;38.80;39.10
39095;DHT22;24840;47.508;19.376;2022-07-29T10:55:36;38.40;40.40
39095;DHT22;24840;47.508;19.376;2022-07-29T11:00:39;39.30;39.40
39095;DHT22;24840;47.508;19.376;2022-07-29T11:03:07;38.00;39.60
39095;DHT22;24840;47.508;19.376;2022-07-29T11:05:55;36.60;41.90
39095;DHT22;24840;47.508;19.376;2022-07-29T11:08:22;39.20;40.60
39095;DHT22;24840;47.508;19.376;2022-07-29T11:13:47;38.60;40.30
39095;DHT22;24840;47.508;19.376;2022-07-29T11:16:16;37.20;40.60
39095;DHT22;24840;47.508;19.376;2022-07-29T11:21:43;39.10;39.50
39095;DHT22;24840;47.508;19.376;2022-07-29T11:24:18;38.80;38.90
39095;DHT22;24840;47.508;19.376;2022-07-29T11:29:35;40.10;38.50
39095;DHT22;24840;47.508;19.376;2022-07-29T11:32:13;39.80;38.10
39095;DHT22;24840;47.508;19.376;2022-07-29T11:34:41;40.50;38.40
39095;DHT22;24840;47.508;19.376;2022-07-29T11:39:41;40.20;37.40
39095;DHT22;24840;47.508;19.376;2022-07-29T11:47:29;39.30;38.40
39095;DHT22;24840;47.508;19.376;2022-07-29T11:50:02;40.50;37.20
39095;DHT22;24840;47.508;19.376;2022-07-29T11:52:39;40.10;36.80
39095;DHT22;24840;47.508;19.376;2022-07-29T11:55:18;40.40;38.10
39095;DHT22;24840;47.508;19.376;2022-07-29T11:58:04;40.10;37.50
39095;DHT22;24840;47.508;19.376;2022-07-29T12:00:40;39.60;38.10
39095;DHT22;24840;47.508;19.376;2022-07-29T12:03:10;40.00;38.20
39095;DHT22;24840;47.508;19.376;2022-07-29T12:05:44;40.20;37.60
39095;DHT22;24840;47.508;19.376;2022-07-29T12:08:18;40.20;37.50
39095;DHT22;24840;47.508;19.376;2022-07-29T12:10:46;40.50;37.10
39095;DHT22;24840;47.508;19.376;2022-07-29T12:13:20;39.70;37.00
39095;DHT22;24840;47.508;19.376;2022-07-29T12:15:55;39.10;38.40
39095;DHT22;24840;47.508;19.376;2022-07-29T12:18:23;40.10;37.90
39095;DHT22;24840;47.508;19.376;2022-07-29T12:21:02;38.70;37.70
39095;DHT22;24840;47.508;19.376;2022-07-29T12:23:32;39.30;38.40
39095;DHT22;24840;47.508;19.376;2022-07-29T12:26:05;39.40;37.30
39095;DHT22;24840;47.508;19.376;2022-07-29T12:28:37;39.60;37.00
39095;DHT22;24840;47.508;19.376;2022-07-29T12:31:03;40.80;37.20
39095;DHT22;24840;47.508;19.376;2022-07-29T12:33:30;40.90;36.40
39095;DHT22;24840;47.508;19.376;2022-07-29T12:36:02;40.80;35.60
39095;DHT22;24840;47.508;19.376;2022-07-29T12:41:52;38.70;37.90
39095;DHT22;24840;47.508;19.376;2022-07-29T12:44:20;39.90;38.10
39095;DHT22;24840;47.508;19.376;2022-07-29T12:47:02;39.20;38.00
39095;DHT22;24840;47.508;19.376;2022-07-29T12:49:28;38.90;37.80
39095;DHT22;24840;47.508;19.376;2022-07-29T12:51:55;37.30;39.20
39095;DHT22;24840;47.508;19.376;2022-07-29T12:54:24;37.60;39.90
39095;DHT22;24840;47.508;19.376;2022-07-29T12:56:58;39.60;38.20
39095;DHT22;24840;47.508;19.376;2022-07-29T12:59:25;40.00;36.70
39095;DHT22;24840;47.508;19.376;2022-07-29T13:01:52;38.60;37.70
39095;DHT22;24840;47.508;19.376;2022-07-29T13:04:27;37.40;38.60
39095;DHT22;24840;47.508;19.376;2022-07-29T13:07:05;36.80;39.80
39095;DHT22;24840;47.508;19.376;2022-07-29T13:09:42;36.10;40.50
39095;DHT22;24840;47.508;19.376;2022-07-29T13:12:11;36.00;40.70
39095;DHT22;24840;47.508;19.376;2022-07-29T13:17:46;37.90;39.70
39095;DHT22;24840;47.508;19.376;2022-07-29T13:20:16;37.80;38.40
39095;DHT22;24840;47.508;19.376;2022-07-29T13:22:42;37.50;40.50
39095;DHT22;24840;47.508;19.376;2022-07-29T13:25:14;38.40;39.00
39095;DHT22;24840;47.508;19.376;2022-07-29T13:27:42;39.30;38.30
39095;DHT22;24840;47.508;19.376;2022-07-29T13:30:11;38.10;38.40
39095;DHT22;24840;47.508;19.376;2022-07-29T13:32:38;36.70;39.40
39095;DHT22;24840;47.508;19.376;2022-07-29T13:35:07;37.80;39.30
39095;DHT22;24840;47.508;19.376;2022-07-29T13:37:36;37.90;38.30
39095;DHT22;24840;47.508;19.376;2022-07-29T13:40:08;37.90;38.90
39095;DHT22;24840;47.508;19.376;2022-07-29T13:42:41;39.00;37.60
39095;DHT22;24840;47.508;19.376;2022-07-29T13:45:09;39.50;37.30
39095;DHT22;24840;47.508;19.376;2022-07-29T13:47:37;40.00;36.10
39095;DHT22;24840;47.508;19.376;2022-07-29T13:50:05;39.90;36.60
39095;DHT22;24840;47.508;19.376;2022-07-29T13:52:56;40.20;36.30
39095;DHT22;24840;47.508;19.376;2022-07-29T13:58:29;37.30;38.70
39095;DHT22;24840;47.508;19.376;2022-07-29T14:00:56;36.70;39.10
39095;DHT22;24840;47.508;19.376;2022-07-29T14:03:23;37.70;38.70
39095;DHT22;24840;47.508;19.376;2022-07-29T14:06:15;38.10;38.00
39095;DHT22;24840;47.508;19.376;2022-07-29T14:08:42;38.30;38.00
39095;DHT22;24840;47.508;19.376;2022-07-29T14:11:11;39.00;38.50
39095;DHT22;24840;47.508;19.376;2022-07-29T14:13:42;39.60;36.80
39095;DHT22;24840;47.508;19.376;2022-07-29T14:16:11;39.20;37.40
39095;DHT22;24840;47.508;19.376;2022-07-29T14:18:37;39.20;37.00
39095;DHT22;24840;47.508;19.376;2022-07-29T14:21:03;39.20;36.40
39095;DHT22;24840;47.508;19.376;2022-07-29T14:23:29;38.60;38.00
39095;DHT22;24840;47.508;19.376;2022-07-29T14:25:55;37.50;36.80
39095;DHT22;24840;47.508;19.376;2022-07-29T14:28:21;38.60;36.90
39095;DHT22;24840;47.508;19.376;2022-07-29T14:30:48;38.00;37.00
39095;DHT22;24840;47.508;19.376;2022-07-29T14:33:14;38.60;37.20
39095;DHT22;24840;47.508;19.376;2022-07-29T14:35:39;39.50;36.80
39095;DHT22;24840;47.508;19.376;2022-07-29T14:38:05;39.40;36.80
39095;DHT22;24840;47.508;19.376;2022-07-29T14:40:31;40.10;36.10
39095;DHT22;24840;47.508;19.376;2022-07-29T14:42:57;40.00;36.00
39095;DHT22;24840;47.508;19.376;2022-07-29T14:45:23;39.40;37.00
39095;DHT22;24840;47.508;19.376;2022-07-29T14:47:49;39.10;37.10
39095;DHT22;24840;47.508;19.376;2022-07-29T14:50:16;39.10;37.70
39095;DHT22;24840;47.508;19.376;2022-07-29T14:52:43;38.50;37.10
39095;DHT22;24840;47.508;19.376;2022-07-29T14:55:09;38.60;37.30
39095;DHT22;24840;47.508;19.376;2022-07-29T14:57:35;37.40;37.90
39095;DHT22;24840;47.508;19.376;2022-07-29T15:00:03;37.60;38.00
39095;DHT22;24840;47.508;19.376;2022-07-29T15:02:29;38.60;37.40
39095;DHT22;24840;47.508;19.376;2022-07-29T15:04:55;38.90;37.60
39095;DHT22;24840;47.508;19.376;2022-07-29T15:07:22;38.60;36.50
39095;DHT22;24840;47.508;19.376;2022-07-29T15:09:48;38.40;37.00
39095;DHT22;24840;47.508;19.376;2022-07-29T15:12:14;37.20;38.30
39095;DHT22;24840;47.508;19.376;2022-07-29T15:14:40;38.00;37.60
39095;DHT22;24840;47.508;19.376;2022-07-29T15:17:05;37.90;37.40
39095;DHT22;24840;47.508;19.376;2022-07-29T15:19:31;38.00;37.20
39095;DHT22;24840;47.508;19.376;2022-07-29T15:21:58;37.80;37.40
39095;DHT22;24840;47.508;19.376;2022-07-29T15:24:24;37.80;38.00
39095;DHT22;24840;47.508;19.376;2022-07-29T15:26:50;38.00;37.30
39095;DHT22;24840;47.508;19.376;2022-07-29T15:29:16;37.20;37.40
39095;DHT22;24840;47.508;19.376;2022-07-29T15:31:43;36.70;38.70
39095;DHT22;24840;47.508;19.376;2022-07-29T15:34:09;37.00;37.70
39095;DHT22;24840;47.508;19.376;2022-07-29T15:36:35;37.00;37.60
39095;DHT22;24840;47.508;19.376;2022-07-29T15:42:16;36.90;38.10
39095;DHT22;24840;47.508;19.376;2022-07-29T15:44:42;36.50;37.80
39095;DHT22;24840;47.508;19.376;2022-07-29T15:47:08;36.50;37.90
39095;DHT22;24840;47.508;19.376;2022-07-29T15:49:38;36.40;38.20
39095;DHT22;24840;47.508;19.376;2022-07-29T15:52:08;36.60;37.90
39095;DHT22;24840;47.508;19.376;2022-07-29T15:54:36;36.60;38.20
39095;DHT22;24840;47.508;19.376;2022-07-29T15:57:04;36.60;38.00
39095;DHT22;24840;47.508;19.376;2022-07-29T15:59:32;36.30;38.50
39095;DHT22;24840;47.508;19.376;2022-07-29T16:01:59;36.10;38.70
39095;DHT22;24840;47.508;19.376;2022-07-29T16:04:26;35.60;39.20
39095;DHT22;24840;47.508;19.376;2022-07-29T16:06:52;35.80;40.10
39095;DHT22;24840;47.508;19.376;2022-07-29T16:09:19;35.80;39.50
39095;DHT22;24840;47.508;19.376;2022-07-29T16:11:45;35.60;39.90
39095;DHT22;24840;47.508;19.376;2022-07-29T16:14:13;35.40;39.80
39095;DHT22;24840;47.508;19.376;2022-07-29T16:16:40;35.30;40.20
39095;DHT22;24840;47.508;19.376;2022-07-29T16:19:06;35.00;40.50
39095;DHT22;24840;47.508;19.376;2022-07-29T16:21:35;34.90;40.60
39095;DHT22;24840;47.508;19.376;2022-07-29T16:24:02;34.90;40.70
39095;DHT22;24840;47.508;19.376;2022-07-29T16:26:28;34.40;40.80